createdAt,value
2022-12-16T00:02:20.132Z,2.80
2022-12-16T00:07:24.655Z,3.83
2022-12-16T00:12:27.602Z,3.63
2022-12-16T00:17:30.473Z,3.75
2022-12-16T00:22:34.676Z,3.28
2022-12-16T00:27:37.524Z,4.93
2022-12-16T00:32:40.336Z,2.83
2022-12-16T00:37:44.512Z,2.92
2022-12-16T00:42:47.360Z,3.03
2022-12-16T00:47:51.435Z,3.25
2022-12-16T00:52:56.218Z,3.85
2022-12-16T00:57:59.052Z,3.03
2022-12-16T01:03:01.968Z,3.08
2022-12-16T01:08:06.640Z,2.40
2022-12-16T01:13:09.461Z,3.65
2022-12-16T01:18:12.329Z,3.90
2022-12-16T01:23:16.496Z,2.60
2022-12-16T01:28:19.361Z,2.85
2022-12-16T01:33:22.154Z,3.65
2022-12-16T01:38:26.320Z,2.85
2022-12-16T01:43:31.086Z,2.72
2022-12-16T01:48:44.016Z,2.45
2022-12-16T01:53:49.097Z,3.70
2022-12-16T01:58:52.669Z,2.30
2022-12-16T02:03:56.983Z,2.38
2022-12-16T02:09:04.101Z,2.85
2022-12-16T02:14:22.113Z,2.85
2022-12-16T02:19:53.754Z,2.60
2022-12-16T02:25:36.339Z,2.38
2022-12-16T02:30:49.436Z,2.53
2022-12-16T02:35:59.586Z,2.33
2022-12-16T02:41:04.280Z,2.03
2022-12-16T02:46:09.617Z,2.22
2022-12-16T02:51:12.701Z,2.22
2022-12-16T02:56:32.578Z,2.03
2022-12-16T03:01:42.451Z,2.00
2022-12-16T03:06:50.075Z,2.60
2022-12-16T03:11:55.412Z,2.10
2022-12-16T03:17:00.056Z,2.50
2022-12-16T03:22:07.282Z,2.58
2022-12-16T03:27:18.403Z,3.17
2022-12-16T03:32:28.937Z,2.30
2022-12-16T03:37:37.183Z,2.78
2022-12-16T03:42:41.219Z,1.88
2022-12-16T03:47:49.872Z,2.28
2022-12-16T03:52:52.711Z,1.77
2022-12-16T03:57:57.143Z,1.95
2022-12-16T04:03:01.510Z,1.85
2022-12-16T04:08:04.635Z,2.15
2022-12-16T04:13:25.092Z,1.83
2022-12-16T04:18:46.611Z,5.22
2022-12-16T04:24:09.819Z,2.38
2022-12-16T04:29:12.874Z,2.10
2022-12-16T04:34:30.061Z,2.13
2022-12-16T04:39:50.585Z,1.70
2022-12-16T04:45:10.738Z,2.03
2022-12-16T04:50:43.854Z,2.33
2022-12-16T04:56:04.896Z,1.75
2022-12-16T05:01:25.426Z,2.30
2022-12-16T05:06:47.228Z,2.47
2022-12-16T05:12:08.477Z,2.15
2022-12-16T05:17:28.593Z,2.13
2022-12-16T05:22:50.578Z,2.08
2022-12-16T05:28:11.398Z,1.65
2022-12-16T05:33:31.846Z,1.90
2022-12-16T05:38:53.466Z,2.67
2022-12-16T05:44:13.716Z,1.85
2022-12-16T05:49:34.010Z,3.75
2022-12-16T05:54:55.446Z,2.00
2022-12-16T06:00:15.539Z,2.65
2022-12-16T06:05:35.618Z,4.78
2022-12-16T06:10:57.453Z,2.85
2022-12-16T06:16:25.962Z,2.85
2022-12-16T06:21:46.071Z,2.47
2022-12-16T06:27:07.598Z,2.88
2022-12-16T06:32:30.100Z,2.63
2022-12-16T06:37:50.329Z,2.17
2022-12-16T06:43:11.986Z,6.13
2022-12-16T06:48:32.285Z,2.30
2022-12-16T06:53:52.528Z,4.07
2022-12-16T06:59:13.213Z,2.00
2022-12-16T07:04:34.081Z,3.75
2022-12-16T07:09:54.285Z,7.03
2022-12-16T07:15:15.813Z,5.28
2022-12-16T07:20:36.132Z,5.80
2022-12-16T07:25:56.216Z,7.30
2022-12-16T07:31:18.248Z,5.18
2022-12-16T07:36:38.647Z,4.55
2022-12-16T07:41:58.912Z,3.97
2022-12-16T07:47:20.576Z,3.55
2022-12-16T07:52:40.816Z,3.70
2022-12-16T07:58:01.243Z,3.03
2022-12-16T08:03:22.781Z,3.40
2022-12-16T08:08:42.986Z,4.63
2022-12-16T08:14:03.128Z,4.22
2022-12-16T08:19:24.562Z,2.83
2022-12-16T08:30:26.444Z,6.75
2022-12-16T08:35:48.445Z,5.90
2022-12-16T08:41:08.666Z,8.02
2022-12-16T08:46:29.003Z,8.20
2022-12-16T08:51:50.726Z,4.07
2022-12-16T08:57:11.563Z,4.28
2022-12-16T09:02:32.059Z,5.25
2022-12-16T09:07:53.984Z,4.95
2022-12-16T09:13:24.209Z,6.45
2022-12-16T09:18:40.956Z,5.55
2022-12-16T09:24:02.584Z,5.07
2022-12-16T09:29:22.927Z,6.43
2022-12-16T09:34:43.105Z,4.72
2022-12-16T09:40:16.101Z,3.72
2022-12-16T09:45:44.330Z,4.95
2022-12-16T09:51:07.286Z,4.22
2022-12-16T09:56:36.052Z,4.38
2022-12-16T10:01:57.425Z,4.35
2022-12-16T10:07:18.914Z,6.43
2022-12-16T10:12:49.346Z,4.05
2022-12-16T10:18:09.675Z,8.48
2022-12-16T10:23:37.733Z,6.07
2022-12-16T10:29:04.740Z,7.13
2022-12-16T10:34:30.518Z,3.42
2022-12-16T10:39:55.226Z,5.68
2022-12-16T10:45:20.913Z,5.95
2022-12-16T10:50:41.290Z,4.75
2022-12-16T10:56:14.084Z,5.10
2022-12-16T11:01:44.480Z,2.38
2022-12-16T11:07:05.094Z,2.33
2022-12-16T11:12:45.049Z,2.88
2022-12-16T11:18:21.143Z,3.38
2022-12-16T11:23:43.590Z,2.78
2022-12-16T11:29:03.911Z,2.22
2022-12-16T11:34:27.892Z,3.28
2022-12-16T11:39:50.069Z,2.92
2022-12-16T11:45:14.267Z,3.08
2022-12-16T11:50:38.248Z,3.35
2022-12-16T11:56:08.956Z,3.35
2022-12-16T12:01:44.766Z,4.82
2022-12-16T12:07:25.607Z,2.30
2022-12-16T12:12:56.490Z,4.90
2022-12-16T12:18:23.932Z,2.63
2022-12-16T12:23:55.823Z,3.17
2022-12-16T12:29:23.737Z,3.08
2022-12-16T12:34:52.098Z,2.30
2022-12-16T12:40:21.719Z,2.75
2022-12-16T12:46:01.061Z,3.33
2022-12-16T12:51:26.752Z,2.28
2022-12-16T12:56:57.481Z,2.85
2022-12-16T13:02:20.125Z,2.70
2022-12-16T13:07:40.516Z,2.60
2022-12-16T13:13:27.633Z,3.75
2022-12-16T13:18:49.212Z,3.35
2022-12-16T13:24:09.355Z,2.38
2022-12-16T13:29:38.544Z,2.90
2022-12-16T13:35:10.368Z,3.13
2022-12-16T13:40:37.275Z,2.60
2022-12-16T13:46:01.592Z,2.47
2022-12-16T13:51:22.137Z,2.67
2022-12-16T13:56:47.583Z,2.95
2022-12-16T14:02:27.368Z,2.33
2022-12-16T14:07:51.042Z,3.15
2022-12-16T14:13:23.334Z,3.00
2022-12-16T14:18:54.022Z,3.50
2022-12-16T14:24:21.128Z,2.83
2022-12-16T14:29:45.844Z,2.42
2022-12-16T14:35:20.344Z,5.40
2022-12-16T14:40:42.763Z,3.00
2022-12-16T14:46:07.993Z,2.95
2022-12-16T14:51:47.310Z,3.38
2022-12-16T14:57:07.482Z,3.30
2022-12-16T15:02:38.117Z,3.75
2022-12-16T15:07:59.334Z,3.75
2022-12-16T15:13:19.631Z,3.05
2022-12-16T15:18:43.324Z,4.10
2022-12-16T15:24:04.807Z,3.50
2022-12-16T15:29:46.845Z,3.03
2022-12-16T15:35:08.010Z,3.53
2022-12-16T15:40:43.360Z,3.38
2022-12-16T15:46:07.664Z,5.97
2022-12-16T15:51:43.268Z,17.95
2022-12-16T15:57:05.204Z,10.23
2022-12-16T16:02:32.250Z,10.85
2022-12-16T16:07:49.077Z,8.60
2022-12-16T16:13:10.918Z,9.48
2022-12-16T16:18:31.175Z,7.90
2022-12-16T16:23:51.619Z,9.90
2022-12-16T16:29:13.148Z,7.75
2022-12-16T16:34:33.279Z,5.68
2022-12-16T16:39:53.574Z,7.72
2022-12-16T16:45:17.773Z,7.40
2022-12-16T16:50:37.931Z,6.78
2022-12-16T16:55:58.352Z,9.43
2022-12-16T17:01:20.143Z,12.38
2022-12-16T17:06:40.591Z,26.80
2022-12-16T17:12:01.133Z,81.00
2022-12-16T17:17:23.455Z,134.05
2022-12-16T17:22:43.753Z,160.93
2022-12-16T17:28:04.862Z,211.32
2022-12-16T17:33:26.665Z,195.43
2022-12-16T17:38:46.840Z,175.63
2022-12-16T17:44:10.673Z,176.07
2022-12-16T17:49:32.637Z,168.30
2022-12-16T17:54:52.918Z,158.52
2022-12-16T18:00:13.446Z,151.57
2022-12-16T18:05:42.436Z,134.13
2022-12-16T18:11:04.520Z,122.30
2022-12-16T18:16:25.276Z,115.60
2022-12-16T18:21:46.581Z,95.90
2022-12-16T18:27:06.895Z,94.05
2022-12-16T18:32:31.877Z,86.13
2022-12-16T18:37:56.445Z,89.55
2022-12-16T18:43:17.665Z,79.72
2022-12-16T18:48:37.950Z,83.22
2022-12-16T18:53:59.446Z,73.18
2022-12-16T18:59:19.491Z,66.32
2022-12-16T19:04:39.888Z,80.55
2022-12-16T19:10:16.202Z,71.05
2022-12-16T19:15:41.017Z,71.10
2022-12-16T19:21:01.728Z,64.43
2022-12-16T19:26:23.782Z,60.72
2022-12-16T19:31:45.031Z,57.50
2022-12-16T19:37:05.504Z,57.17
2022-12-16T19:42:31.469Z,54.45
2022-12-16T19:47:51.664Z,45.65
2022-12-16T19:53:12.294Z,41.92
2022-12-16T19:58:39.068Z,46.25
2022-12-16T20:03:59.308Z,46.53
2022-12-16T20:09:19.425Z,39.50
2022-12-16T20:14:56.590Z,37.33
2022-12-16T20:20:16.866Z,34.72
2022-12-16T20:25:37.309Z,40.20
2022-12-16T20:31:07.455Z,35.58
2022-12-16T20:36:28.717Z,31.13
2022-12-16T20:41:48.886Z,34.47
2022-12-16T20:47:10.615Z,27.80
2022-12-16T20:52:30.871Z,29.45
2022-12-16T20:57:51.155Z,28.77
2022-12-16T21:03:13.320Z,24.40
2022-12-16T21:08:33.426Z,23.90
2022-12-16T21:13:56.289Z,23.75
2022-12-16T21:19:18.596Z,25.83
2022-12-16T21:24:39.428Z,21.55
2022-12-16T21:29:59.646Z,21.75
2022-12-16T21:35:21.721Z,20.75
2022-12-16T21:40:41.846Z,23.02
2022-12-16T21:46:02.409Z,21.85
2022-12-16T21:51:24.269Z,22.90
2022-12-16T21:56:44.508Z,19.30
2022-12-16T22:02:05.213Z,19.20
2022-12-16T22:07:27.266Z,21.40
2022-12-16T22:12:47.629Z,17.17
2022-12-16T22:18:07.952Z,16.23
2022-12-16T22:23:29.605Z,17.20
2022-12-16T22:28:49.910Z,16.60
2022-12-16T22:34:11.166Z,21.42
2022-12-16T22:39:32.695Z,15.20
2022-12-16T22:44:52.939Z,16.05
2022-12-16T22:50:16.984Z,14.93
2022-12-16T22:55:38.858Z,12.85
2022-12-16T23:00:59.016Z,14.82
2022-12-16T23:06:19.279Z,14.35
2022-12-16T23:11:43.247Z,12.05
2022-12-16T23:17:03.395Z,14.10
2022-12-16T23:22:23.765Z,10.43
2022-12-16T23:27:54.110Z,11.80
2022-12-16T23:33:17.839Z,11.85
2022-12-16T23:38:38.036Z,10.75
2022-12-16T23:44:03.265Z,10.23
2022-12-16T23:49:22.630Z,11.35
2022-12-16T23:54:43.133Z,9.45
